createdAt,value
2023-07-22T00:02:07.713Z,2.07
2023-07-22T00:04:36.175Z,1.87
2023-07-22T00:07:04.756Z,1.90
2023-07-22T00:09:35.878Z,1.90
2023-07-22T00:12:04.693Z,2.10
2023-07-22T00:14:33.347Z,1.80
2023-07-22T00:17:03.269Z,1.67
2023-07-22T00:19:31.625Z,1.57
2023-07-22T00:21:59.997Z,2.00
2023-07-22T00:24:31.414Z,1.60
2023-07-22T00:26:59.777Z,1.60
2023-07-22T00:29:28.118Z,1.83
2023-07-22T00:31:56.421Z,1.90
2023-07-22T00:34:26.129Z,1.70
2023-07-22T00:36:54.640Z,1.57
2023-07-22T00:39:23.096Z,1.40
2023-07-22T00:41:51.439Z,1.73
2023-07-22T00:44:22.620Z,1.60
2023-07-22T00:46:52.671Z,1.80
2023-07-22T00:49:21.254Z,1.90
2023-07-22T00:51:50.984Z,1.60
2023-07-22T00:54:19.495Z,1.40
2023-07-22T00:56:49.966Z,1.50
2023-07-22T00:59:19.222Z,1.53
2023-07-22T01:01:47.558Z,1.90
2023-07-22T01:04:18.226Z,1.70
2023-07-22T01:06:51.934Z,1.60
2023-07-22T01:09:20.235Z,1.83
2023-07-22T01:11:49.675Z,1.70
2023-07-22T01:14:18.021Z,1.60
2023-07-22T01:16:46.762Z,1.67
2023-07-22T01:19:20.085Z,2.00
2023-07-22T01:21:52.351Z,1.80
2023-07-22T01:24:22.367Z,1.67
2023-07-22T01:26:50.798Z,1.60
2023-07-22T01:29:19.170Z,1.73
2023-07-22T01:31:52.254Z,2.23
2023-07-22T01:34:20.843Z,1.73
2023-07-22T01:36:49.761Z,2.33
2023-07-22T01:39:19.492Z,2.00
2023-07-22T01:41:49.576Z,1.90
2023-07-22T01:44:17.945Z,2.00
2023-07-22T01:46:46.293Z,2.13
2023-07-22T01:49:15.294Z,2.10
2023-07-22T01:51:43.647Z,2.00
2023-07-22T01:54:12.657Z,1.97
2023-07-22T01:56:41.598Z,2.00
2023-07-22T01:59:11.526Z,1.87
2023-07-22T02:01:39.925Z,2.30
2023-07-22T02:04:08.788Z,1.67
2023-07-22T02:06:38.828Z,1.80
2023-07-22T02:09:09.827Z,2.20
2023-07-22T02:11:38.685Z,2.03
2023-07-22T02:14:11.119Z,1.90
2023-07-22T02:16:39.785Z,1.70
2023-07-22T02:19:08.259Z,1.77
2023-07-22T02:21:36.629Z,2.10
2023-07-22T02:24:08.915Z,1.90
2023-07-22T02:26:37.410Z,2.10
2023-07-22T02:29:05.830Z,2.43
2023-07-22T02:31:35.536Z,1.70
2023-07-22T02:34:03.860Z,1.83
2023-07-22T02:36:35.156Z,2.00
2023-07-22T02:39:04.248Z,1.63
2023-07-22T02:41:32.752Z,2.27
2023-07-22T02:44:01.165Z,1.90
2023-07-22T02:46:29.678Z,1.90
2023-07-22T02:49:00.562Z,1.93
2023-07-22T02:51:28.977Z,2.17
2023-07-22T02:53:57.281Z,1.97
2023-07-22T02:56:28.530Z,2.10
2023-07-22T02:58:57.175Z,2.03
2023-07-22T03:01:25.837Z,1.57
2023-07-22T03:03:54.301Z,1.87
2023-07-22T03:06:24.014Z,2.33
2023-07-22T03:08:52.730Z,2.20
2023-07-22T03:11:21.093Z,2.00
2023-07-22T03:13:49.381Z,1.80
2023-07-22T03:16:17.767Z,2.30
2023-07-22T03:18:46.033Z,1.83
2023-07-22T03:21:14.405Z,2.10
2023-07-22T03:23:44.098Z,2.20
2023-07-22T03:26:12.435Z,2.20
2023-07-22T03:28:42.574Z,2.20
2023-07-22T03:31:10.980Z,2.10
2023-07-22T03:33:42.610Z,2.60
2023-07-22T03:36:10.955Z,2.13
2023-07-22T03:38:39.254Z,2.00
2023-07-22T03:41:09.282Z,1.93
2023-07-22T03:43:39.738Z,2.00
2023-07-22T03:46:08.133Z,2.40
2023-07-22T03:48:36.614Z,2.10
2023-07-22T03:51:18.971Z,1.77
2023-07-22T03:53:51.720Z,2.20
2023-07-22T03:56:21.439Z,2.17
2023-07-22T03:58:52.241Z,1.77
2023-07-22T04:01:21.845Z,2.10
2023-07-22T04:03:53.455Z,1.60
2023-07-22T04:06:21.824Z,1.83
2023-07-22T04:08:50.329Z,2.10
2023-07-22T04:11:20.078Z,1.90
2023-07-22T04:13:51.270Z,2.33
2023-07-22T04:16:19.631Z,1.80
2023-07-22T04:18:48.006Z,2.03
2023-07-22T04:21:16.350Z,1.70
2023-07-22T04:23:45.164Z,2.10
2023-07-22T04:26:13.502Z,2.20
2023-07-22T04:28:43.188Z,2.07
2023-07-22T04:31:11.545Z,2.03
2023-07-22T04:33:39.903Z,2.10
2023-07-22T04:36:08.184Z,2.70
2023-07-22T04:38:36.547Z,2.20
2023-07-22T04:41:06.077Z,2.50
2023-07-22T04:43:37.167Z,2.20
2023-07-22T04:46:06.979Z,2.43
2023-07-22T04:48:35.339Z,2.40
2023-07-22T04:51:03.690Z,2.50
2023-07-22T04:53:37.693Z,2.47
2023-07-22T04:56:06.304Z,2.53
2023-07-22T04:58:34.715Z,2.03
2023-07-22T05:01:03.069Z,2.20
2023-07-22T05:03:32.821Z,2.53
2023-07-22T05:06:01.302Z,2.53
2023-07-22T05:08:32.327Z,2.57
2023-07-22T05:11:00.682Z,2.40
2023-07-22T05:13:31.542Z,2.43
2023-07-22T05:15:59.833Z,2.10
2023-07-22T05:18:28.136Z,2.10
2023-07-22T05:20:57.850Z,2.27
2023-07-22T05:23:26.185Z,2.47
2023-07-22T05:25:54.854Z,2.20
2023-07-22T05:28:24.926Z,2.63
2023-07-22T05:30:53.566Z,2.03
2023-07-22T05:33:21.944Z,2.10
2023-07-22T05:35:53.175Z,2.43
2023-07-22T05:38:22.955Z,2.50
2023-07-22T05:40:54.783Z,2.47
2023-07-22T05:43:23.286Z,2.10
2023-07-22T05:45:53.692Z,2.50
2023-07-22T05:48:22.789Z,2.50
2023-07-22T05:50:51.447Z,2.10
2023-07-22T05:53:19.823Z,2.40
2023-07-22T05:55:49.477Z,2.50
2023-07-22T05:58:21.177Z,2.30
2023-07-22T06:00:50.146Z,2.17
2023-07-22T06:03:22.144Z,2.77
2023-07-22T06:05:50.572Z,2.20
2023-07-22T06:08:18.915Z,2.40
2023-07-22T06:10:48.746Z,2.33
2023-07-22T06:13:23.068Z,2.63
2023-07-22T06:15:54.156Z,2.27
2023-07-22T06:18:22.499Z,2.30
2023-07-22T06:20:51.210Z,2.10
2023-07-22T06:23:19.553Z,2.40
2023-07-22T06:25:49.242Z,2.20
2023-07-22T06:28:17.628Z,2.43
2023-07-22T06:30:45.958Z,2.50
2023-07-22T06:33:14.319Z,2.60
2023-07-22T06:35:47.763Z,2.23
2023-07-22T06:38:18.417Z,2.40
2023-07-22T06:40:48.219Z,2.63
2023-07-22T06:43:16.930Z,2.57
2023-07-22T06:45:45.280Z,2.10
2023-07-22T06:48:13.655Z,2.33
2023-07-22T06:50:41.987Z,2.53
2023-07-22T06:53:10.511Z,2.13
2023-07-22T06:55:41.418Z,2.27
2023-07-22T06:58:11.091Z,2.40
2023-07-22T07:00:42.286Z,2.60
2023-07-22T07:03:10.642Z,2.67
2023-07-22T07:05:41.801Z,2.10
2023-07-22T07:08:11.318Z,2.00
2023-07-22T07:10:41.329Z,2.60
2023-07-22T07:13:11.431Z,2.43
2023-07-22T07:15:39.937Z,2.70
2023-07-22T07:18:08.380Z,2.37
2023-07-22T07:20:39.177Z,2.40
2023-07-22T07:23:07.459Z,2.17
2023-07-22T07:25:35.807Z,2.40
2023-07-22T07:28:05.090Z,2.27
2023-07-22T07:30:34.880Z,2.27
2023-07-22T07:33:03.315Z,2.20
2023-07-22T07:35:32.092Z,2.10
2023-07-22T07:38:00.531Z,2.30
2023-07-22T07:40:28.858Z,2.30
2023-07-22T07:42:57.260Z,2.30
2023-07-22T07:45:25.674Z,2.37
2023-07-22T07:47:55.340Z,2.10
2023-07-22T07:50:23.772Z,2.30
2023-07-22T07:52:52.086Z,2.40
2023-07-22T07:55:20.656Z,2.07
2023-07-22T07:57:49.110Z,2.37
2023-07-22T08:00:18.506Z,1.97
2023-07-22T08:02:46.866Z,2.20
2023-07-22T08:05:17.432Z,2.50
2023-07-22T08:07:45.935Z,2.20
2023-07-22T08:10:14.377Z,2.50
2023-07-22T08:12:42.737Z,2.10
2023-07-22T08:15:11.885Z,2.17
2023-07-22T08:17:40.253Z,2.20
2023-07-22T08:20:11.436Z,1.87
2023-07-22T08:22:41.129Z,2.07
2023-07-22T08:25:13.544Z,1.80
2023-07-22T08:27:41.997Z,2.13
2023-07-22T08:30:11.615Z,2.27
2023-07-22T08:32:39.963Z,2.20
2023-07-22T08:35:09.397Z,1.73
2023-07-22T08:37:37.884Z,1.80
2023-07-22T08:40:10.908Z,1.57
2023-07-22T08:42:40.596Z,1.57
2023-07-22T08:45:12.872Z,1.30
2023-07-22T08:47:47.769Z,1.77
2023-07-22T08:50:22.723Z,1.90
2023-07-22T08:52:51.600Z,1.67
2023-07-22T08:55:21.684Z,1.77
2023-07-22T08:57:52.363Z,1.50
2023-07-22T09:00:21.076Z,1.70
2023-07-22T09:02:50.346Z,1.90
2023-07-22T09:05:24.479Z,1.67
2023-07-22T09:07:53.946Z,1.77
2023-07-22T09:10:25.174Z,2.07
2023-07-22T09:12:54.191Z,1.50
2023-07-22T09:15:24.348Z,1.80
2023-07-22T09:17:52.810Z,1.37
2023-07-22T09:20:22.508Z,1.60
2023-07-22T09:23:07.299Z,2.10
2023-07-22T09:25:42.996Z,1.80
2023-07-22T09:28:11.982Z,1.90
2023-07-22T09:30:42.028Z,1.70
2023-07-22T09:33:22.772Z,1.80
2023-07-22T09:35:52.231Z,1.77
2023-07-22T09:38:26.431Z,1.88
2023-07-22T09:40:56.380Z,1.80
2023-07-22T09:43:28.285Z,2.15
2023-07-22T09:45:56.622Z,2.20
2023-07-22T09:48:26.393Z,4.38
2023-07-22T09:51:02.016Z,5.20
2023-07-22T09:53:30.301Z,2.00
2023-07-22T09:56:06.484Z,1.95
2023-07-22T09:58:38.730Z,1.90
2023-07-22T10:01:08.123Z,1.90
2023-07-22T10:03:39.749Z,2.40
2023-07-22T10:06:09.210Z,2.10
2023-07-22T10:08:41.179Z,1.80
2023-07-22T10:11:13.000Z,1.67
2023-07-22T10:13:41.711Z,1.60
2023-07-22T10:16:10.345Z,1.73
2023-07-22T10:18:48.817Z,1.80
2023-07-22T10:21:18.115Z,1.70
2023-07-22T10:23:49.065Z,1.85
2023-07-22T10:26:29.182Z,1.58
2023-07-22T10:29:11.250Z,1.80
2023-07-22T10:31:39.727Z,2.20
2023-07-22T10:34:08.156Z,1.80
2023-07-22T10:36:38.368Z,1.67
2023-07-22T10:39:06.742Z,1.48
2023-07-22T10:41:41.629Z,1.52
2023-07-22T10:44:13.657Z,1.77
2023-07-22T10:46:44.892Z,1.52
2023-07-22T10:49:14.640Z,1.50
2023-07-22T10:51:43.122Z,1.70
2023-07-22T10:54:15.293Z,1.55
2023-07-22T10:56:46.103Z,1.60
2023-07-22T10:59:19.206Z,1.88
2023-07-22T11:01:48.035Z,1.70
2023-07-22T11:04:36.700Z,1.85
2023-07-22T11:07:12.101Z,1.60
2023-07-22T11:09:45.429Z,1.77
2023-07-22T11:12:21.630Z,1.60
2023-07-22T11:14:52.469Z,1.58
2023-07-22T11:17:30.855Z,1.58
2023-07-22T11:20:00.752Z,1.85
2023-07-22T11:22:30.502Z,1.60
2023-07-22T11:24:59.898Z,1.90
2023-07-22T11:27:30.670Z,1.63
2023-07-22T11:30:08.438Z,1.77
2023-07-22T11:32:36.911Z,1.60
2023-07-22T11:35:05.973Z,1.65
2023-07-22T11:37:34.805Z,1.50
2023-07-22T11:40:03.337Z,1.70
2023-07-22T11:42:35.549Z,1.90
2023-07-22T11:45:04.233Z,1.95
2023-07-22T11:47:32.934Z,1.48
2023-07-22T11:50:02.236Z,1.55
2023-07-22T11:52:30.783Z,1.83
2023-07-22T11:55:04.993Z,1.80
2023-07-22T11:57:34.696Z,1.92
2023-07-22T12:00:03.169Z,1.88
2023-07-22T12:02:32.907Z,2.03
2023-07-22T12:05:06.297Z,1.40
2023-07-22T12:07:37.226Z,1.83
2023-07-22T12:10:08.471Z,1.70
2023-07-22T12:12:40.553Z,1.77
2023-07-22T12:15:16.736Z,2.05
2023-07-22T12:17:50.768Z,1.48
2023-07-22T12:20:20.294Z,1.67
2023-07-22T12:22:48.623Z,1.80
2023-07-22T12:25:17.113Z,1.70
2023-07-22T12:27:47.246Z,1.70
2023-07-22T12:30:18.780Z,2.38
2023-07-22T12:32:48.944Z,1.48
2023-07-22T12:35:17.855Z,1.70
2023-07-22T12:37:46.291Z,1.73
2023-07-22T12:40:15.130Z,1.90
2023-07-22T12:42:43.581Z,1.80
2023-07-22T12:45:13.573Z,1.73
2023-07-22T12:47:41.964Z,1.48
2023-07-22T12:50:11.624Z,1.75
2023-07-22T12:52:40.206Z,1.88
2023-07-22T12:55:09.838Z,1.80
2023-07-22T12:57:38.262Z,1.75
2023-07-22T13:00:10.814Z,1.85
2023-07-22T13:02:41.599Z,1.95
2023-07-22T13:05:10.839Z,1.85
2023-07-22T13:07:39.451Z,1.60
2023-07-22T13:10:11.988Z,1.90
2023-07-22T13:12:40.635Z,1.83
2023-07-22T13:15:10.048Z,1.70
2023-07-22T13:17:40.139Z,1.95
2023-07-22T13:20:10.217Z,1.77
2023-07-22T13:22:38.854Z,1.90
2023-07-22T13:25:10.077Z,1.65
2023-07-22T13:27:39.162Z,1.98
2023-07-22T13:30:09.978Z,1.60
2023-07-22T13:32:40.522Z,1.83
2023-07-22T13:35:11.706Z,1.65
2023-07-22T13:37:40.190Z,1.63
2023-07-22T13:40:12.235Z,2.17
2023-07-22T13:42:41.129Z,2.15
2023-07-22T13:45:10.721Z,2.90
2023-07-22T13:47:39.197Z,2.38
2023-07-22T13:50:08.406Z,2.22
2023-07-22T13:52:38.330Z,2.08
2023-07-22T13:55:07.905Z,1.83
2023-07-22T13:57:36.375Z,2.90
2023-07-22T14:00:09.550Z,2.53
2023-07-22T14:02:38.222Z,2.20
2023-07-22T14:05:08.060Z,1.80
2023-07-22T14:07:38.135Z,2.10
2023-07-22T14:10:09.397Z,1.88
2023-07-22T14:12:49.316Z,1.95
2023-07-22T14:15:17.758Z,1.90
2023-07-22T14:17:46.589Z,2.00
2023-07-22T14:20:15.686Z,1.88
2023-07-22T14:22:45.906Z,1.65
2023-07-22T14:25:14.354Z,2.03
2023-07-22T14:27:42.854Z,1.92
2023-07-22T14:30:12.275Z,1.50
2023-07-22T14:32:40.876Z,1.80
2023-07-22T14:35:10.532Z,1.77
2023-07-22T14:37:39.858Z,1.80
2023-07-22T14:40:11.626Z,1.80
2023-07-22T14:42:40.289Z,2.17
2023-07-22T14:45:10.066Z,2.10
2023-07-22T14:47:38.774Z,2.22
2023-07-22T14:50:08.353Z,2.10
2023-07-22T14:52:36.872Z,2.13
2023-07-22T14:55:06.106Z,2.22
2023-07-22T14:57:35.957Z,1.90
2023-07-22T15:00:05.259Z,1.95
2023-07-22T15:02:33.823Z,2.25
2023-07-22T15:05:02.351Z,2.03
2023-07-22T15:07:31.427Z,2.40
2023-07-22T15:10:00.784Z,2.00
2023-07-22T15:12:29.325Z,2.00
2023-07-22T15:14:59.154Z,2.65
2023-07-22T15:17:27.596Z,2.35
2023-07-22T15:19:55.960Z,1.92
2023-07-22T15:22:24.396Z,2.08
2023-07-22T15:24:52.824Z,1.80
2023-07-22T15:27:21.158Z,2.08
2023-07-22T15:29:49.579Z,2.25
2023-07-22T15:32:19.340Z,2.30
2023-07-22T15:34:47.819Z,2.15
2023-07-22T15:37:16.530Z,2.45
2023-07-22T15:39:45.182Z,1.98
2023-07-22T15:42:13.986Z,2.55
2023-07-22T15:44:42.406Z,2.10
2023-07-22T15:47:10.820Z,2.22
2023-07-22T15:49:40.593Z,2.10
2023-07-22T15:52:09.858Z,2.50
2023-07-22T15:54:38.259Z,2.15
2023-07-22T15:57:07.250Z,2.15
2023-07-22T15:59:35.858Z,2.50
2023-07-22T16:02:04.846Z,2.38
2023-07-22T16:04:37.686Z,2.58
2023-07-22T16:07:09.333Z,2.22
2023-07-22T16:09:37.965Z,2.00
2023-07-22T16:12:07.328Z,2.50
2023-07-22T16:14:36.261Z,2.53
2023-07-22T16:17:04.768Z,2.15
2023-07-22T16:19:33.163Z,2.22
2023-07-22T16:22:01.577Z,2.38
2023-07-22T16:24:31.396Z,2.30
2023-07-22T16:26:59.784Z,1.88
2023-07-22T16:29:28.160Z,1.88
2023-07-22T16:31:56.661Z,2.33
2023-07-22T16:34:25.094Z,2.13
2023-07-22T16:36:53.500Z,2.28
2023-07-22T16:39:23.346Z,1.95
2023-07-22T16:41:53.747Z,1.98
2023-07-22T16:44:23.681Z,2.28
2023-07-22T16:46:52.010Z,1.77
2023-07-22T16:49:20.456Z,2.10
2023-07-22T16:51:49.027Z,2.25
2023-07-22T16:54:17.449Z,2.30
2023-07-22T16:56:45.816Z,2.00
2023-07-22T16:59:15.936Z,1.55
2023-07-22T17:01:44.352Z,2.03
2023-07-22T17:04:12.828Z,2.08
2023-07-22T17:06:41.246Z,2.30
2023-07-22T17:09:09.723Z,2.00
2023-07-22T17:11:38.135Z,1.98
2023-07-22T17:14:06.726Z,2.10
2023-07-22T17:16:36.588Z,2.28
2023-07-22T17:19:05.027Z,1.92
2023-07-22T17:21:33.391Z,2.00
2023-07-22T17:24:01.778Z,2.13
2023-07-22T17:26:30.168Z,2.75
2023-07-22T17:29:01.391Z,2.20
2023-07-22T17:31:30.014Z,1.60
2023-07-22T17:34:00.001Z,2.03
2023-07-22T17:36:28.812Z,1.75
2023-07-22T17:38:57.206Z,1.90
2023-07-22T17:41:25.766Z,2.03
2023-07-22T17:43:54.531Z,1.90
2023-07-22T17:46:22.984Z,2.00
2023-07-22T17:48:51.319Z,1.80
2023-07-22T17:51:21.078Z,1.80
2023-07-22T17:53:49.470Z,1.90
2023-07-22T17:56:17.867Z,1.87
2023-07-22T17:58:46.334Z,2.53
2023-07-22T18:01:14.805Z,2.27
2023-07-22T18:03:43.279Z,2.13
2023-07-22T18:06:11.755Z,1.90
2023-07-22T18:08:41.560Z,1.97
2023-07-22T18:11:09.974Z,1.80
2023-07-22T18:13:38.616Z,1.90
2023-07-22T18:16:07.402Z,2.10
2023-07-22T18:18:35.822Z,2.00
2023-07-22T18:21:04.303Z,2.30
2023-07-22T18:23:32.982Z,2.70
2023-07-22T18:26:02.745Z,2.17
2023-07-22T18:28:33.869Z,2.07
2023-07-22T18:31:02.364Z,2.33
2023-07-22T18:33:30.768Z,1.87
2023-07-22T18:35:59.212Z,1.77
2023-07-22T18:38:28.751Z,1.87
2023-07-22T18:40:57.266Z,2.00
2023-07-22T18:43:27.173Z,1.77
2023-07-22T18:45:55.564Z,2.00
2023-07-22T18:48:23.986Z,2.10
2023-07-22T18:50:57.370Z,2.33
2023-07-22T18:53:25.812Z,1.90
2023-07-22T18:55:54.190Z,2.33
2023-07-22T18:58:22.618Z,2.23
2023-07-22T19:00:53.127Z,2.13
2023-07-22T19:03:21.531Z,2.23
2023-07-22T19:05:53.023Z,2.17
2023-07-22T19:08:25.848Z,2.17
2023-07-22T19:10:55.134Z,2.17
2023-07-22T19:13:23.545Z,2.10
2023-07-22T19:15:55.572Z,2.07
2023-07-22T19:18:23.957Z,2.20
2023-07-22T19:21:00.436Z,2.00
2023-07-22T19:23:29.501Z,1.83
2023-07-22T19:25:58.917Z,2.00
2023-07-22T19:28:33.379Z,2.10
2023-07-22T19:31:03.128Z,2.10
2023-07-22T19:33:32.454Z,2.40
2023-07-22T19:36:07.371Z,2.33
2023-07-22T19:38:36.972Z,2.57
2023-07-22T19:41:07.400Z,2.23
2023-07-22T19:43:36.546Z,2.70
2023-07-22T19:46:08.580Z,3.10
2023-07-22T19:48:38.013Z,2.50
2023-07-22T19:51:08.728Z,2.43
2023-07-22T19:53:37.379Z,2.53
2023-07-22T19:56:09.815Z,2.07
2023-07-22T19:58:39.341Z,2.63
2023-07-22T20:01:11.341Z,2.50
2023-07-22T20:03:41.861Z,2.73
2023-07-22T20:06:11.482Z,2.63
2023-07-22T20:08:41.390Z,2.20
2023-07-22T20:11:10.045Z,2.20
2023-07-22T20:13:38.892Z,2.70
2023-07-22T20:16:08.802Z,2.27
2023-07-22T20:18:38.190Z,2.60
2023-07-22T20:21:06.645Z,2.80
2023-07-22T20:23:35.023Z,2.87
2023-07-22T20:26:03.525Z,2.80
2023-07-22T20:28:34.907Z,2.70
2023-07-22T20:31:03.361Z,2.40
2023-07-22T20:33:33.779Z,2.73
2023-07-22T20:36:02.396Z,2.70
2023-07-22T20:38:32.727Z,2.47
2023-07-22T20:41:06.319Z,2.50
2023-07-22T20:43:35.756Z,2.53
2023-07-22T20:46:05.682Z,2.20
2023-07-22T20:48:35.519Z,3.00
2023-07-22T20:51:04.243Z,2.40
2023-07-22T20:53:32.664Z,2.80
2023-07-22T20:56:01.739Z,2.77
2023-07-22T20:58:31.296Z,2.50
2023-07-22T21:01:03.104Z,2.90
2023-07-22T21:03:31.955Z,3.27
2023-07-22T21:06:01.969Z,2.70
2023-07-22T21:08:36.876Z,3.13
2023-07-22T21:11:05.294Z,2.60
2023-07-22T21:13:33.662Z,2.90
2023-07-22T21:16:02.080Z,2.80
2023-07-22T21:18:30.636Z,2.87
2023-07-22T21:20:59.069Z,2.47
2023-07-22T21:23:28.911Z,2.50
2023-07-22T21:25:58.248Z,2.57
2023-07-22T21:28:27.076Z,2.70
2023-07-22T21:30:55.828Z,2.77
2023-07-22T21:33:24.473Z,2.80
2023-07-22T21:35:53.482Z,3.00
2023-07-22T21:38:21.965Z,3.33
2023-07-22T21:40:52.349Z,2.53
2023-07-22T21:43:20.864Z,2.63
2023-07-22T21:45:50.515Z,3.20
2023-07-22T21:48:20.923Z,3.60
2023-07-22T21:50:49.317Z,3.10
2023-07-22T21:53:17.956Z,2.73
2023-07-22T21:55:47.473Z,2.60
2023-07-22T21:58:20.537Z,2.53
2023-07-22T22:00:48.980Z,2.33
2023-07-22T22:03:17.583Z,2.67
2023-07-22T22:05:46.008Z,2.60
2023-07-22T22:08:14.401Z,2.80
2023-07-22T22:10:44.241Z,2.80
2023-07-22T22:13:12.615Z,2.67
2023-07-22T22:15:42.359Z,2.63
2023-07-22T22:18:10.762Z,2.97
2023-07-22T22:20:39.171Z,2.97
2023-07-22T22:23:08.340Z,2.70
2023-07-22T22:25:37.812Z,2.43
2023-07-22T22:28:06.452Z,2.97
2023-07-22T22:30:34.842Z,2.90
2023-07-22T22:33:04.632Z,3.20
2023-07-22T22:35:32.988Z,3.07
2023-07-22T22:38:01.345Z,2.90
2023-07-22T22:40:29.730Z,2.80
2023-07-22T22:42:59.562Z,2.40
2023-07-22T22:45:28.103Z,2.90
2023-07-22T22:47:56.487Z,2.83
2023-07-22T22:50:26.393Z,2.40
2023-07-22T22:52:54.998Z,2.60
2023-07-22T22:55:23.338Z,2.93
2023-07-22T22:57:51.805Z,3.20
2023-07-22T23:00:23.375Z,3.07
2023-07-22T23:02:53.273Z,3.30
2023-07-22T23:05:21.732Z,2.90
2023-07-22T23:07:52.176Z,3.20
2023-07-22T23:10:20.729Z,3.13
2023-07-22T23:12:49.045Z,3.00
2023-07-22T23:15:17.717Z,2.80
2023-07-22T23:17:46.121Z,3.00
2023-07-22T23:20:15.147Z,3.03
2023-07-22T23:22:44.918Z,3.13
2023-07-22T23:25:14.662Z,3.10
2023-07-22T23:27:43.013Z,3.30
2023-07-22T23:30:12.975Z,3.40
2023-07-22T23:32:41.902Z,3.97
2023-07-22T23:35:11.293Z,2.73
2023-07-22T23:37:39.642Z,3.10
2023-07-22T23:40:09.854Z,3.63
2023-07-22T23:42:39.535Z,3.30
2023-07-22T23:45:09.250Z,2.77
2023-07-22T23:47:37.649Z,3.23
2023-07-22T23:50:07.108Z,3.30
2023-07-22T23:52:35.426Z,3.30
2023-07-22T23:55:04.081Z,2.77
2023-07-22T23:57:32.458Z,3.10
